Flight Track Log - Related Links

Times and Time Zones

All times are in EDT time to prevent confusion due to time zone crossing. See the UAL4457 flight status page for this flight to view local times or setup timezone preferences in your user account.

Time Position Orientation Groundspeed Altitude Reporting Facility
EDT Latitude Longitude Course Direction KTS MPH feet Rate Location/Type
Fri 05:52:56 PM 37.9697 -84.6753 219° Southwest 196 226 4,800  Level Indianapolis Center
Fri 05:53:58 PM 37.9364 -84.7425 238° Southwest 222 255 7,300 2,903 Climbing Indianapolis Center
Fri 05:55:00 PM 37.9028 -84.8300 244° Southwest 236 272 10,800 2,323 Climbing Indianapolis Center
Fri 05:56:02 PM 37.8742 -84.9058 244° Southwest 241 277 12,100 1,258 Climbing Indianapolis Center
Fri 05:57:00 PM 37.7220 -85.0980 231° Southwest  Level Estimated
Fri 05:57:04 PM 37.8358 -84.9994 243° Southwest 285 328 13,400  Level Indianapolis Center
Fri 05:58:05 PM 37.7986 -85.0961 244° Southwest 301 346 14,900 1,500 Climbing Indianapolis Center
Fri 05:59:08 PM 37.7583 -85.1981 243° Southwest 316 364 16,500 1,728 Climbing Indianapolis Center
Fri 06:00:10 PM 37.7128 -85.3125 243° Southwest 315 362 18,500 1,887 Climbing Indianapolis Center
Fri 06:01:12 PM 37.6739 -85.4058 242° Southwest 308 354 20,400 1,839 Climbing Indianapolis Center
Fri 06:02:14 PM 37.6397 -85.4939 244° Southwest 287 330 22,300 1,902 Climbing Indianapolis Center
Fri 06:03:15 PM 37.6053 -85.5817 244° Southwest 269 310 24,300 1,902 Climbing Indianapolis Center
Fri 06:04:17 PM 37.5728 -85.6619 243° Southwest 258 297 26,200 1,742 Climbing Indianapolis Center
Fri 06:05:19 PM 37.5411 -85.7375 242° Southwest 247 284 27,900 1,548 Climbing Indianapolis Center
Fri 06:06:21 PM 37.4928 -85.7917 222° Southwest 234 269 29,400 1,403 Climbing Indianapolis Center
Fri 06:07:23 PM 37.4453 -85.8464 222° Southwest 233 268 30,800 1,258 Climbing Indianapolis Center
Fri 06:08:25 PM 37.3931 -85.9097 224° Southwest 232 267 32,000 1,065 Climbing Indianapolis Center
Fri 06:09:27 PM 37.3433 -85.9675 223° Southwest 239 275 33,000 968 Climbing Indianapolis Center
Fri 06:10:29 PM 37.2931 -86.0256 223° Southwest 243 280 34,000 968 Climbing Indianapolis Center
Fri 06:11:31 PM 37.2419 -86.0817 221° Southwest 242 278 35,000 823 Climbing Indianapolis Center
Fri 06:12:33 PM 37.2053 -86.1525 237° Southwest 247 284 35,700 462 Climbing Indianapolis Center
Fri 06:13:41 PM 37.1681 -86.2467 244° Southwest 255 293 36,000 141 Climbing Memphis Center
Fri 06:14:41 PM 37.1353 -86.3342 245° Southwest 270 311 36,000  Level Memphis Center
Fri 06:15:41 PM 37.0989 -86.4272 244° Southwest 290 334 36,000  Level Memphis Center
Fri 06:16:41 PM 37.0583 -86.5331 244° Southwest 303 349 36,000  Level Memphis Center
Fri 06:17:41 PM 37.0197 -86.6336 244° Southwest 319 367 36,000  Level Memphis Center
Fri 06:18:41 PM 36.9772 -86.7422 244° Southwest 339 390 36,000  Level Memphis Center
Fri 06:19:41 PM 36.9364 -86.8531 245° Southwest 344 396 36,000  Level Memphis Center
Fri 06:20:41 PM 36.8936 -86.9614 244° Southwest 344 396 36,000  Level Memphis Center
Fri 06:21:41 PM 36.8508 -87.0719 244° Southwest 344 396 36,000  Level Memphis Center
Fri 06:22:41 PM 36.8078 -87.1800 244° Southwest 344 396 36,000  Level Memphis Center
Fri 06:23:41 PM 36.7647 -87.2931 245° Southwest 344 396 36,000  Level Memphis Center
Fri 06:24:41 PM 36.7194 -87.4008 242° Southwest 349 402 36,000  Level Memphis Center
Fri 06:25:41 PM 36.6761 -87.5111 244° Southwest 349 402 36,000  Level Memphis Center
Fri 06:26:41 PM 36.6331 -87.6264 245° Southwest 355 409 36,000  Level Memphis Center
Fri 06:27:41 PM 36.5853 -87.7339 241° Southwest 355 409 36,000  Level Memphis Center
Fri 06:28:41 PM 36.5417 -87.8464 244° Southwest 360 414 36,000  Level Memphis Center
Fri 06:29:41 PM 36.5000 -87.9483 243° Southwest 365 420 36,000  Level Memphis Center
Fri 06:30:41 PM 36.4561 -88.0581 244° Southwest 370 426 36,000  Level Memphis Center
Fri 06:31:41 PM 36.4103 -88.1756 244° Southwest 358 412 36,000  Level Memphis Center
Fri 06:32:41 PM 36.3664 -88.2822 243° Southwest 353 406 36,000  Level Memphis Center
Fri 06:33:41 PM 36.3242 -88.3864 243° Southwest 348 400 36,000  Level Memphis Center
Fri 06:34:41 PM 36.2819 -88.4903 243° Southwest 343 395 36,000  Level Memphis Center
Fri 06:35:41 PM 36.2378 -88.5917 242° Southwest 343 395 36,000  Level Memphis Center
Fri 06:36:41 PM 36.1933 -88.6983 243° Southwest 343 395 36,000  Level Memphis Center
Fri 06:37:41 PM 36.1489 -88.8019 242° Southwest 343 395 36,000  Level Memphis Center
Fri 06:38:41 PM 36.1042 -88.9106 243° Southwest 348 400 36,000  Level Memphis Center
Fri 06:39:41 PM 36.0594 -89.0167 242° Southwest 348 400 36,000  Level Memphis Center
Fri 06:40:41 PM 36.0147 -89.1228 243° Southwest 348 400 36,000  Level Memphis Center
Fri 06:41:41 PM 35.9719 -89.2258 243° Southwest 348 400 36,000  Level Memphis Center
Fri 06:42:41 PM 35.9122 -89.3217 232° Southwest 348 400 36,000  Level Memphis Center
Fri 06:43:41 PM 35.8442 -89.4119 227° Southwest 353 406 36,000  Level Memphis Center
Fri 06:44:41 PM 35.7844 -89.4922 227° Southwest 353 406 36,000  Level Memphis Center
Fri 06:45:41 PM 35.7119 -89.5797 224° Southwest 365 420 36,000  Level Memphis Center
Fri 06:46:41 PM 35.6417 -89.6800 229° Southwest 356 410 36,000  Level Memphis Center
Fri 06:47:41 PM 35.5775 -89.7622 226° Southwest 362 417 36,000  Level Memphis Center
Fri 06:48:41 PM 35.5069 -89.8547 227° Southwest 368 423 36,000  Level Memphis Center
Fri 06:49:41 PM 35.4364 -89.9417 225° Southwest 373 429 36,000  Level Memphis Center
Fri 06:51:00 PM 35.3472 -90.0498 225° Southwest  Level FlightAware Approximate
Fri 06:51:41 PM 35.2928 -90.1231 225° Southwest 373 429 36,000  Level Memphis Center
Fri 06:52:41 PM 35.2242 -90.2097 226° Southwest 367 422 36,000  Level Memphis Center
Fri 06:53:41 PM 35.1514 -90.3011 226° Southwest 367 422 36,000  Level Memphis Center
Fri 06:54:41 PM 35.0803 -90.3900 226° Southwest 372 428 36,000  Level Memphis Center
Fri 06:55:41 PM 35.0094 -90.4789 226° Southwest 372 428 36,000  Level Memphis Center
Fri 06:56:41 PM 34.9364 -90.5672 225° Southwest 372 428 36,000  Level Memphis Center
Fri 06:57:41 PM 34.8653 -90.6558 226° Southwest 372 428 36,000  Level Memphis Center
Fri 06:58:41 PM 34.7878 -90.7517 225° Southwest 367 422 36,000  Level Memphis Center
Fri 06:59:41 PM 34.7164 -90.8397 225° Southwest 367 422 36,000  Level Memphis Center
Fri 07:00:41 PM 34.6431 -90.9275 225° Southwest 373 429 36,000  Level Memphis Center
Fri 07:01:41 PM 34.5717 -91.0156 225° Southwest 373 429 36,000  Level Memphis Center
Fri 07:02:41 PM 34.4981 -91.1031 224° Southwest 373 429 36,000  Level Memphis Center
Fri 07:03:41 PM 34.4244 -91.1931 225° Southwest 373 429 36,000  Level Memphis Center
Fri 07:04:41 PM 34.3531 -91.2806 225° Southwest 373 429 36,000  Level Memphis Center
Fri 07:05:41 PM 34.2814 -91.3678 225° Southwest 368 423 36,000  Level Memphis Center
Fri 07:06:41 PM 34.2075 -91.4572 225° Southwest 374 430 36,000  Level Memphis Center
Fri 07:07:41 PM 34.1358 -91.5442 225° Southwest 369 425 36,000  Level Memphis Center
Fri 07:09:15 PM 34.0400 -91.6717 228° Southwest 353 406 36,000  Level Fort Worth Center
Fri 07:10:16 PM 33.9644 -91.7567 223° Southwest 359 413 36,000  Level Fort Worth Center
Fri 07:11:16 PM 33.8889 -91.8417 223° Southwest 371 427 36,000  Level Fort Worth Center
Fri 07:12:15 PM 33.8178 -91.9286 225° Southwest 376 433 36,000  Level Fort Worth Center
Fri 07:13:16 PM 33.7461 -92.0131 224° Southwest 370 426 36,000  Level Fort Worth Center
Fri 07:14:16 PM 33.6728 -92.1000 225° Southwest 370 426 36,000  Level Fort Worth Center
Fri 07:15:16 PM 33.5950 -92.1844 222° Southwest 370 426 36,000  Level Fort Worth Center
Fri 07:16:15 PM 33.4922 -92.2256 198° South 370 426 36,000  Level Fort Worth Center
Fri 07:17:16 PM 33.3869 -92.2539 193° South 389 448 36,000  Level Fort Worth Center
Fri 07:18:16 PM 33.2758 -92.2878 194° South 394 453 36,000  Level Fort Worth Center
Fri 07:19:16 PM 33.1706 -92.3189 194° South 401 461 36,000  Level Fort Worth Center
Fri 07:20:16 PM 33.0633 -92.3497 194° South 401 461 36,000  Level Fort Worth Center
Fri 07:21:16 PM 32.9561 -92.3831 195° South 401 461 36,000  Level Fort Worth Center
Fri 07:22:15 PM 32.8531 -92.4136 194° South 396 456 36,000  Level Fort Worth Center
Fri 07:23:15 PM 32.7436 -92.4467 194° South 396 456 36,000  Level Fort Worth Center
Fri 07:24:15 PM 32.6364 -92.4750 193° South 396 456 36,000  Level Fort Worth Center
Fri 07:25:16 PM 32.5311 -92.5078 195° South 396 456 36,000  Level Fort Worth Center
Fri 07:27:04 PM 32.3344 -92.5681 195° South 397 457 36,000  Level Houston Center
Fri 07:28:06 PM 32.2275 -92.6014 195° South 398 458 36,000  Level Houston Center
Fri 07:29:08 PM 32.1194 -92.6331 194° South 399 459 36,000 -48 Level Houston Center
Fri 07:30:10 PM 31.9903 -92.6719 194° South 397 457 35,900  Descending Houston Center
Fri 07:31:12 PM 31.9061 -92.7383 214° Southwest 368 423 36,000 48 Climbing Houston Center
Fri 07:32:14 PM 31.8292 -92.8139 220° Southwest 363 418 36,000  Level Houston Center
Fri 07:33:16 PM 31.7514 -92.8892 219° Southwest 362 417 36,000  Level Houston Center
Fri 07:34:18 PM 31.6747 -92.9669 221° Southwest 363 418 36,000  Level Houston Center
Fri 07:35:20 PM 31.5967 -93.0403 219° Southwest 361 415 36,000  Level Houston Center
Fri 07:36:22 PM 31.5039 -93.1308 220° Southwest 361 415 36,000  Level Houston Center
Fri 07:37:25 PM 31.4269 -93.2044 219° Southwest 359 413 36,000  Level Houston Center
Fri 07:38:27 PM 31.3550 -93.2750 220° Southwest 346 398 36,000 -194 Level Houston Center
Fri 07:39:29 PM 31.2708 -93.3539 219° Southwest 340 391 35,600 -581 Descending Houston Center
Fri 07:40:31 PM 31.2069 -93.4133 219° Southwest 343 395 34,800 -1,065 Descending Houston Center
Fri 07:41:33 PM 31.1183 -93.4992 220° Southwest 346 398 33,400 -1,403 Descending Houston Center
Fri 07:42:35 PM 31.0431 -93.5694 219° Southwest 347 399 31,900 -1,452 Descending Houston Center
Fri 07:43:37 PM 30.9689 -93.6392 219° Southwest 344 396 30,400 -1,548 Descending Houston Center
Fri 07:44:39 PM 30.8925 -93.7125 219° Southwest 355 409 28,700 -1,597 Descending Houston Center
Fri 07:45:41 PM 30.8183 -93.7811 218° Southwest 346 398 27,100 -1,887 Descending Houston Center
Fri 07:46:43 PM 30.7311 -93.8656 220° Southwest 342 394 24,800 -2,032 Descending Houston Center
Fri 07:47:45 PM 30.6569 -93.9347 219° Southwest 345 397 22,900 -1,904 Descending Houston Center
Fri 07:48:27 PM 30.6036 -93.9831 218° Southwest 340 391 21,500 -1,935 Descending Houston Center
Fri 07:48:47 PM 30.5836 -94.0031 221° Southwest 341 392 20,900 -2,073 Descending Houston Center
Fri 07:49:22 PM 30.5328 -94.0511 219° Southwest 343 395 19,600 -1,839 Descending Houston Center
Fri 07:49:49 PM 30.5083 -94.0731 218° Southwest 347 399 19,000 -1,869 Descending Houston Center
Fri 07:50:23 PM 30.4597 -94.1192 219° Southwest 345 397 17,700 -1,548 Descending Houston Center
Fri 07:50:51 PM 30.4372 -94.1403 219° Southwest 334 384 17,400 -1,393 Descending Houston Center
Fri 07:51:19 PM 30.3925 -94.1814 218° Southwest 324 373 16,400 -1,839 Descending Houston Center
Fri 07:51:53 PM 30.3528 -94.2192 219° Southwest 327 376 15,500 -1,522 Descending Houston Center
Fri 07:52:26 PM 30.3114 -94.2553 217° Southwest 325 374 14,700 -1,258 Descending Houston Center
Fri 07:52:55 PM 30.2822 -94.2831 219° Southwest 325 374 14,200 -1,279 Descending Houston Center
Fri 07:53:27 PM 30.2500 -94.3142 220° Southwest 278 320 13,400 -1,714 Descending Houston Center
Fri 07:53:58 PM 30.2222 -94.3406 219° Southwest 288 331 12,400 -1,355 Descending Houston Center
Fri 07:54:29 PM 30.1914 -94.3800 228° Southwest 277 319 12,000 -677 Descending Houston Center
Fri 07:55:00 PM 30.1800 -94.4106 247° West 271 312 11,700 -1,254 Descending Houston Center
Fri 07:55:36 PM 30.1600 -94.4661 247° West 261 300 10,600 -1,742 Descending Houston Center
Fri 07:56:02 PM 30.1486 -94.4950 245° Southwest 268 308 9,900 -1,869 Descending Houston Center
Fri 07:56:37 PM 30.1264 -94.5528 246° West 282 325 8,700 -1,548 Descending Houston Center
Fri 07:57:04 PM 30.1186 -94.5783 251° West 279 321 8,300 -750 Descending Houston Center
Fri 07:57:33 PM 30.0997 -94.6239 244° Southwest 277 319 8,000 -290 Descending Houston Center
Fri 07:58:06 PM 30.0883 -94.6594 250° West 276 318 8,000  Level Houston Center
Fri 07:58:40 PM 30.0664 -94.7150 245° Southwest 274 315 8,000  Level Houston Center
Fri 07:59:08 PM 30.0589 -94.7403 251° West 275 316 8,000  Level Houston Center
Fri 07:59:35 PM 30.0378 -94.7889 243° Southwest 273 314 8,000  Level Houston Center
Fri 08:00:10 PM 30.0231 -94.8356 250° West 272 313 8,000  Level Houston Center
Fri 08:00:37 PM 30.0114 -94.8644 245° Southwest 254 292 8,000 -581 Level Houston Center
Fri 08:01:12 PM 29.9969 -94.9008 245° Southwest 228 262 7,400 -984 Descending Houston Center
Fri 08:01:38 PM 29.9889 -94.9350 255° West 214 246 7,000 -968 Descending Houston Center
Fri 08:02:14 PM 29.9936 -94.9708 279° West 226 260 6,400 -1,180 Descending Houston Center
Fri 08:02:39 PM 29.9933 -95.0067 269° West 226 260 5,800 -1,258 Descending Houston Center
Fri 08:03:16 PM 29.9939 -95.0408 271° West 222 255 5,100 -1,258 Descending Houston Center
Fri 08:03:41 PM 29.9917 -95.0769 266° West 217 250 4,500 -774 Descending Houston Center
Fri 08:04:18 PM 29.9928 -95.1061 273° West 208 239 4,300 -885 Descending Houston Center
Fri 08:04:42 PM 29.9928 -95.1347 270° West 169 194 3,600 -1,452 Descending Houston Center
Fri 08:05:20 PM 29.9936 -95.1711 272° West 177 204 2,800 -1,164 Descending Houston Center
Fri 08:05:49 PM 29.9944 -95.1972 272° West 167 192 2,300 -1,034 Descending Houston Center

Login

Don't have an account? Register now (free) for customized features, flight alerts, and more!